Itatiba, Brazil
Current Conditions -  °F | °C
As of 5:00 AM on Sunday 26 Oct 2014 (Local Time) from SBKP Reporting Station
Clear Clear  
Wind Chill: 20°   Ceiling: Unl
Heat Index: 20°   Visibility: 6mi
Dew Point: 17°   Wind: 5mph
Humidity: 83%   Direction: 20°NNE
Pressure: 29.97"   Gusts: NA
Location:  23.01°S, 46.84°W
Report Text: SBKP 260700Z 02004KT CAVOK 20/17 Q1015
Loading
Personal Weather Stations






























Interactive Weather Map
Tropical Storm Tracking
New forecast layout! Learn more

10-Day Weather Forecast

Advertisements
Track Severe Weather on mobile